sensor_id;sensor_type;location;lat;lon;timestamp;pressure;altitude;pressure_sealevel;temperature;humidity
70458;BME280;57919;56.194;95.716;2023-05-08T00:08:15;99665.94;;;9.49;41.97
70458;BME280;57919;56.194;95.716;2023-05-08T00:18:17;99665.69;;;9.17;42.43
70458;BME280;57919;56.194;95.716;2023-05-08T00:28:19;99661.31;;;10.31;41.21
70458;BME280;57919;56.194;95.716;2023-05-08T00:38:21;99652.25;;;11.29;39.51
70458;BME280;57919;56.194;95.716;2023-05-08T00:48:24;99647.56;;;12.36;38.19
70458;BME280;57919;56.194;95.716;2023-05-08T00:58:29;99647.28;;;13.48;36.62
70458;BME280;57919;56.194;95.716;2023-05-08T01:08:33;99638.44;;;14.12;34.70
70458;BME280;57919;56.194;95.716;2023-05-08T01:18:43;99641.13;;;14.68;34.68
70458;BME280;57919;56.194;95.716;2023-05-08T01:49:11;99606.81;;;17.10;31.05
70458;BME280;57919;56.194;95.716;2023-05-08T01:59:20;99604.84;;;17.93;29.50
70458;BME280;57919;56.194;95.716;2023-05-08T02:09:23;99596.66;;;18.49;29.60
70458;BME280;57919;56.194;95.716;2023-05-08T02:19:28;99581.44;;;20.52;27.17
70458;BME280;57919;56.194;95.716;2023-05-08T02:29:30;99572.44;;;21.09;26.02
70458;BME280;57919;56.194;95.716;2023-05-08T02:39:34;99561.81;;;21.63;26.17
70458;BME280;57919;56.194;95.716;2023-05-08T02:49:57;99558.94;;;22.68;24.32
70458;BME280;57919;56.194;95.716;2023-05-08T03:00:07;99541.44;;;22.89;23.57
70458;BME280;57919;56.194;95.716;2023-05-08T03:10:14;99537.19;;;22.86;23.96
70458;BME280;57919;56.194;95.716;2023-05-08T03:20:18;99530.38;;;23.83;22.93
70458;BME280;57919;56.194;95.716;2023-05-08T03:30:21;99517.78;;;24.13;22.86
70458;BME280;57919;56.194;95.716;2023-05-08T03:40:39;99504.19;;;24.32;22.51
70458;BME280;57919;56.194;95.716;2023-05-08T03:50:44;99493.47;;;25.88;20.22
70458;BME280;57919;56.194;95.716;2023-05-08T04:01:00;99474.25;;;26.84;19.22
70458;BME280;57919;56.194;95.716;2023-05-08T04:21:19;99445.75;;;28.19;17.43
70458;BME280;57919;56.194;95.716;2023-05-08T04:31:26;99438.75;;;29.08;17.22
70458;BME280;57919;56.194;95.716;2023-05-08T04:41:28;99418.34;;;27.87;15.94
70458;BME280;57919;56.194;95.716;2023-05-08T04:51:30;99401.63;;;27.41;16.07
70458;BME280;57919;56.194;95.716;2023-05-08T05:01:32;99385.78;;;27.53;15.74
70458;BME280;57919;56.194;95.716;2023-05-08T05:11:35;99374.72;;;28.40;14.61
70458;BME280;57919;56.194;95.716;2023-05-08T05:21:37;99360.78;;;29.80;14.45
70458;BME280;57919;56.194;95.716;2023-05-08T05:31:39;99343.91;;;30.09;14.40
70458;BME280;57919;56.194;95.716;2023-05-08T05:41:42;99326.47;;;30.67;14.06
70458;BME280;57919;56.194;95.716;2023-05-08T05:51:45;99315.06;;;30.47;13.98
70458;BME280;57919;56.194;95.716;2023-05-08T06:01:48;99290.25;;;30.77;13.75
70458;BME280;57919;56.194;95.716;2023-05-08T06:11:52;99280.75;;;30.78;13.33
70458;BME280;57919;56.194;95.716;2023-05-08T06:21:54;99266.47;;;30.75;13.32
70458;BME280;57919;56.194;95.716;2023-05-08T06:31:56;99260.06;;;29.21;12.59
70458;BME280;57919;56.194;95.716;2023-05-08T06:41:58;99234.81;;;28.78;13.36
70458;BME280;57919;56.194;95.716;2023-05-08T06:52:05;99226.75;;;29.48;13.02
70458;BME280;57919;56.194;95.716;2023-05-08T07:02:07;99221.97;;;29.27;12.65
70458;BME280;57919;56.194;95.716;2023-05-08T07:12:10;99200.56;;;29.11;12.30
70458;BME280;57919;56.194;95.716;2023-05-08T07:22:12;99183.19;;;28.37;13.18
70458;BME280;57919;56.194;95.716;2023-05-08T07:32:14;99159.41;;;28.62;12.75
70458;BME280;57919;56.194;95.716;2023-05-08T07:42:17;99160.06;;;29.03;13.25
70458;BME280;57919;56.194;95.716;2023-05-08T07:52:18;99142.94;;;28.94;13.09
70458;BME280;57919;56.194;95.716;2023-05-08T08:02:20;99136.84;;;28.98;13.11
70458;BME280;57919;56.194;95.716;2023-05-08T08:12:22;99122.19;;;28.85;13.75
70458;BME280;57919;56.194;95.716;2023-05-08T08:22:25;99125.66;;;28.42;13.29
70458;BME280;57919;56.194;95.716;2023-05-08T08:32:27;99110.47;;;27.71;13.49
70458;BME280;57919;56.194;95.716;2023-05-08T08:42:29;99097.59;;;27.53;14.14
70458;BME280;57919;56.194;95.716;2023-05-08T08:52:59;99082.47;;;27.61;13.49
70458;BME280;57919;56.194;95.716;2023-05-08T09:03:02;99076.44;;;27.64;14.41
70458;BME280;57919;56.194;95.716;2023-05-08T09:13:06;99068.31;;;26.70;13.61
70458;BME280;57919;56.194;95.716;2023-05-08T09:23:09;99063.28;;;26.44;14.10
70458;BME280;57919;56.194;95.716;2023-05-08T09:33:12;99051.78;;;26.17;14.51
70458;BME280;57919;56.194;95.716;2023-05-08T09:43:14;99039.13;;;26.10;14.85
70458;BME280;57919;56.194;95.716;2023-05-08T09:53:15;99036.69;;;25.90;15.06
70458;BME280;57919;56.194;95.716;2023-05-08T10:03:17;99029.78;;;25.69;15.10
70458;BME280;57919;56.194;95.716;2023-05-08T10:13:20;99018.13;;;25.49;15.17
70458;BME280;57919;56.194;95.716;2023-05-08T10:23:22;99015.38;;;25.49;15.57
70458;BME280;57919;56.194;95.716;2023-05-08T10:33:30;99011.00;;;25.41;16.00
70458;BME280;57919;56.194;95.716;2023-05-08T10:43:33;99000.00;;;25.23;15.72
70458;BME280;57919;56.194;95.716;2023-05-08T10:54:01;98985.88;;;25.13;15.47
70458;BME280;57919;56.194;95.716;2023-05-08T11:03:59;98976.06;;;24.98;16.01
70458;BME280;57919;56.194;95.716;2023-05-08T11:24:09;98965.88;;;24.62;16.58
70458;BME280;57919;56.194;95.716;2023-05-08T11:44:45;98943.44;;;24.15;16.65
70458;BME280;57919;56.194;95.716;2023-05-08T11:54:47;98935.34;;;23.96;16.43
70458;BME280;57919;56.194;95.716;2023-05-08T12:04:49;98933.34;;;23.84;16.69
70458;BME280;57919;56.194;95.716;2023-05-08T12:14:51;98934.03;;;23.55;16.50
70458;BME280;57919;56.194;95.716;2023-05-08T12:24:53;98922.22;;;23.16;16.78
70458;BME280;57919;56.194;95.716;2023-05-08T12:34:55;98916.06;;;22.83;16.99
70458;BME280;57919;56.194;95.716;2023-05-08T12:44:58;98912.28;;;22.33;17.63
70458;BME280;57919;56.194;95.716;2023-05-08T12:55:00;98927.22;;;21.79;18.47
70458;BME280;57919;56.194;95.716;2023-05-08T13:05:01;98912.25;;;21.28;19.23
70458;BME280;57919;56.194;95.716;2023-05-08T13:15:06;98908.91;;;20.52;19.80
70458;BME280;57919;56.194;95.716;2023-05-08T13:25:08;98918.13;;;19.90;20.74
70458;BME280;57919;56.194;95.716;2023-05-08T13:35:10;98918.13;;;19.34;22.03
70458;BME280;57919;56.194;95.716;2023-05-08T13:45:13;98915.53;;;18.62;23.12
70458;BME280;57919;56.194;95.716;2023-05-08T13:55:15;98916.78;;;17.94;24.63
70458;BME280;57919;56.194;95.716;2023-05-08T14:05:17;98910.50;;;17.41;25.68
70458;BME280;57919;56.194;95.716;2023-05-08T14:15:19;98918.41;;;16.76;27.00
70458;BME280;57919;56.194;95.716;2023-05-08T14:25:21;98925.59;;;16.15;28.75
70458;BME280;57919;56.194;95.716;2023-05-08T14:35:23;98921.84;;;15.69;29.78
70458;BME280;57919;56.194;95.716;2023-05-08T14:45:25;98908.63;;;15.17;31.22
70458;BME280;57919;56.194;95.716;2023-05-08T14:55:27;98919.88;;;14.73;32.24
70458;BME280;57919;56.194;95.716;2023-05-08T15:05:29;98918.25;;;14.30;33.63
70458;BME280;57919;56.194;95.716;2023-05-08T15:15:32;98910.69;;;14.00;34.05
70458;BME280;57919;56.194;95.716;2023-05-08T15:25:34;98912.91;;;13.62;35.11
70458;BME280;57919;56.194;95.716;2023-05-08T15:35:35;98901.16;;;13.28;36.11
70458;BME280;57919;56.194;95.716;2023-05-08T15:45:38;98909.81;;;12.87;36.73
70458;BME280;57919;56.194;95.716;2023-05-08T15:55:39;98884.44;;;12.53;37.45
70458;BME280;57919;56.194;95.716;2023-05-08T16:05:42;98884.19;;;12.28;37.63
70458;BME280;57919;56.194;95.716;2023-05-08T16:15:46;98882.00;;;11.96;38.20
70458;BME280;57919;56.194;95.716;2023-05-08T16:25:48;98873.97;;;11.77;38.61
70458;BME280;57919;56.194;95.716;2023-05-08T16:35:49;98873.59;;;11.62;38.61
70458;BME280;57919;56.194;95.716;2023-05-08T16:45:52;98879.56;;;11.39;39.04
70458;BME280;57919;56.194;95.716;2023-05-08T16:55:54;98878.09;;;11.07;40.04
70458;BME280;57919;56.194;95.716;2023-05-08T17:05:56;98871.59;;;10.81;40.51
70458;BME280;57919;56.194;95.716;2023-05-08T17:15:58;98870.50;;;10.54;41.49
70458;BME280;57919;56.194;95.716;2023-05-08T17:26:00;98866.53;;;10.20;42.49
70458;BME280;57919;56.194;95.716;2023-05-08T17:36:02;98853.66;;;9.93;43.02
70458;BME280;57919;56.194;95.716;2023-05-08T17:46:05;98851.19;;;9.61;43.72
70458;BME280;57919;56.194;95.716;2023-05-08T17:56:07;98842.09;;;9.22;45.70
70458;BME280;57919;56.194;95.716;2023-05-08T18:06:14;98838.66;;;9.10;44.76
70458;BME280;57919;56.194;95.716;2023-05-08T18:16:18;98829.16;;;8.85;45.31
70458;BME280;57919;56.194;95.716;2023-05-08T18:26:21;98821.69;;;8.68;45.88
70458;BME280;57919;56.194;95.716;2023-05-08T18:36:23;98819.91;;;8.57;45.57
70458;BME280;57919;56.194;95.716;2023-05-08T18:46:25;98806.31;;;8.38;45.73
70458;BME280;57919;56.194;95.716;2023-05-08T18:56:27;98802.06;;;8.24;45.96
70458;BME280;57919;56.194;95.716;2023-05-08T19:06:29;98793.97;;;8.03;47.05
70458;BME280;57919;56.194;95.716;2023-05-08T19:16:31;98791.34;;;7.92;46.94
70458;BME280;57919;56.194;95.716;2023-05-08T19:26:33;98787.44;;;7.85;46.92
70458;BME280;57919;56.194;95.716;2023-05-08T19:36:35;98780.69;;;7.59;47.61
70458;BME280;57919;56.194;95.716;2023-05-08T19:46:38;98774.66;;;7.34;48.41
70458;BME280;57919;56.194;95.716;2023-05-08T19:56:40;98763.56;;;7.17;48.50
70458;BME280;57919;56.194;95.716;2023-05-08T20:06:42;98761.50;;;6.98;48.73
70458;BME280;57919;56.194;95.716;2023-05-08T20:16:44;98777.78;;;6.85;49.54
70458;BME280;57919;56.194;95.716;2023-05-08T20:26:45;98768.50;;;6.78;49.64
70458;BME280;57919;56.194;95.716;2023-05-08T20:36:48;98768.25;;;6.47;51.82
70458;BME280;57919;56.194;95.716;2023-05-08T20:46:50;98762.72;;;6.38;50.84
70458;BME280;57919;56.194;95.716;2023-05-08T20:56:52;98758.56;;;6.34;51.08
70458;BME280;57919;56.194;95.716;2023-05-08T21:06:54;98777.38;;;6.34;50.35
70458;BME280;57919;56.194;95.716;2023-05-08T21:16:56;98783.44;;;6.13;51.26
70458;BME280;57919;56.194;95.716;2023-05-08T21:26:58;98781.47;;;6.04;51.74
70458;BME280;57919;56.194;95.716;2023-05-08T21:37:03;98777.94;;;6.15;50.84
70458;BME280;57919;56.194;95.716;2023-05-08T21:47:05;98758.19;;;6.16;51.48
70458;BME280;57919;56.194;95.716;2023-05-08T21:57:06;98747.34;;;6.29;52.34
70458;BME280;57919;56.194;95.716;2023-05-08T22:07:08;98736.84;;;6.48;51.63
70458;BME280;57919;56.194;95.716;2023-05-08T22:17:11;98744.19;;;6.57;51.85
70458;BME280;57919;56.194;95.716;2023-05-08T22:27:12;98744.91;;;6.37;53.01
70458;BME280;57919;56.194;95.716;2023-05-08T22:37:15;98728.31;;;6.65;53.25
70458;BME280;57919;56.194;95.716;2023-05-08T22:47:18;98729.47;;;7.06;51.86
70458;BME280;57919;56.194;95.716;2023-05-08T22:57:19;98742.59;;;7.42;51.31
70458;BME280;57919;56.194;95.716;2023-05-08T23:07:21;98740.28;;;8.32;49.78
70458;BME280;57919;56.194;95.716;2023-05-08T23:17:23;98738.19;;;9.66;47.16
70458;BME280;57919;56.194;95.716;2023-05-08T23:27:25;98728.69;;;10.66;45.31
70458;BME280;57919;56.194;95.716;2023-05-08T23:37:27;98728.22;;;11.53;43.75
70458;BME280;57919;56.194;95.716;2023-05-08T23:47:29;98736.06;;;12.10;42.94
70458;BME280;57919;56.194;95.716;2023-05-08T23:57:31;98724.72;;;13.18;41.38
